Observations for SYDNEY INTL AIRPORT, Australia (YSSY)

YSSY 220500Z 13009KT CAVOK 18/04 Q1018 NOSIG
YSSY 220430Z 12010KT CAVOK 18/04 Q1018 NOSIG
YSSY 220400Z 12011KT CAVOK 18/04 Q1018 NOSIG
YSSY 220330Z 13011KT CAVOK 18/05 Q1018 NOSIG
YSSY 220300Z 15009KT 9999 FEW048 18/06 Q1018 NOSIG  
YSSY 220230Z 16007KT CAVOK 18/05 Q1018 NOSIG
YSSY 220200Z 16007KT 9999 FEW045 17/08 Q1019 NOSIG  
YSSY 220130Z 15006KT 9999 FEW045 17/07 Q1019 NOSIG  
YSSY 220100Z 24005KT 210V270 CAVOK 16/04 Q1019 NOSIG
YSSY 220030Z 31005KT 240V010 CAVOK 17/05 Q1019 FM0100 20006KT CAVOK 
YSSY 220000Z 32005KT CAVOK 17/06 Q1019 FM0100 20006KT CAVOK 
YSSY 212330Z 31006KT 9999 FEW040 16/06 Q1019 NOSIG  
YSSY 212300Z 33006KT 9999 FEW040 15/06 Q1019 NOSIG  
YSSY 212230Z 31006KT 9999 FEW040 14/06 Q1019 NOSIG  
YSSY 212200Z 35006KT 9999 FEW040 13/05 Q1019 NOSIG  
YSSY 212130Z 33006KT CAVOK 11/06 Q1019 NOSIG
YSSY 212100Z 32007KT CAVOK 10/06 Q1018 NOSIG
YSSY 212030Z 30006KT CAVOK 10/06 Q1018 NOSIG
YSSY 212000Z 34005KT CAVOK 09/05 Q1018 NOSIG
YSSY 211930Z 32006KT CAVOK 09/06 Q1018 NOSIG
YSSY 211900Z 33005KT CAVOK 10/06 Q1017 NOSIG
YSSY 211830Z 25006KT CAVOK 10/06 Q1017 NOSIG
YSSY 211800Z 33004KT CAVOK 10/06 Q1017 NOSIG
YSSY 211730Z 33006KT CAVOK 11/07 Q1016 NOSIG
YSSY 211700Z 34006KT CAVOK 11/07 Q1016 NOSIG
YSSY 211630Z 32004KT CAVOK 11/07 Q1017 NOSIG
YSSY 211600Z 26006KT CAVOK 11/08 Q1017 NOSIG
YSSY 211500Z 27005KT CAVOK 11/07 Q1017 NOSIG
YSSY 211430Z 27005KT CAVOK 12/07 Q1017 NOSIG
YSSY 211400Z 28004KT CAVOK 12/07 Q1017 NOSIG
YSSY 211330Z 31005KT 290V350 9999 -SHRA SCT030 BKN055 13/08 Q1017 NOSIG 
YSSY 211300Z 24005KT CAVOK 13/07 Q1018 NOSIG
YSSY 211230Z 22007KT CAVOK 13/07 Q1018 FM1300 29008KT CAVOK 
YSSY 211200Z 18012KT CAVOK 13/08 Q1018 FM1300 29008KT CAVOK 
YSSY 211130Z 20013KT 9999 -DZ NSC 13/08 Q1017 FM1300 29008KT CAVOK  
YSSY 211100Z 22007KT CAVOK 14/07 Q1017 NOSIG
YSSY 211030Z 25004KT CAVOK 14/06 Q1017 NOSIG
YSSY 211000Z 26005KT CAVOK 14/06 Q1017 NOSIG
YSSY 210930Z 26005KT CAVOK 14/06 Q1017 NOSIG
YSSY 210900Z 24004KT CAVOK 14/06 Q1016 NOSIG
YSSY 210830Z 24003KT CAVOK 14/08 Q1016 NOSIG
YSSY 210800Z 31004KT CAVOK 16/05 Q1016 NOSIG
YSSY 210730Z 32005KT CAVOK 16/05 Q1016 NOSIG
YSSY 210700Z 32006KT CAVOK 17/04 Q1015 NOSIG
YSSY 210630Z 32006KT 300V360 CAVOK 17/05 Q1015 NOSIG
YSSY 210600Z 35007KT CAVOK 17/06 Q1015 NOSIG
YSSY 210530Z 03006KT CAVOK 18/06 Q1015 NOSIG
YSSY 210500Z 01008KT CAVOK 16/06 Q1015 NOSIG
YSSY 210430Z 03007KT CAVOK 17/06 Q1015 NOSIG